Aviation Digital Data Service (ADDS)

Output produced by TAFs form (2333 UTC 29 April 2016)
found at http://www.aviationweather.gov/adds/tafs/
 
KAPA 292330Z 35008KT 1 1/2SM -SN BR BKN005 OVC011 01/M01 A2990 RMK AO2 P0001 T00061006
KAPA 291741Z 2918/3018 VRB04KT 1SM -SN BR BKN004 OVC010 
     TEMPO 2918/2922 1/2SM -SN FG OVC004 
     FM292200 07007KT 3/4SM -SN BR OVC006 
     FM300200 04010KT 1 1/2SM -SN BR BKN007 OVC012 
     FM300400 36008KT 2SM -SN BR BKN008 OVC016 
     FM300500 34010KT 4SM -SN BR BKN007 OVC020 
     TEMPO 3006/3010 1SM -SN BR OVC004